sensor_id;sensor_type;location;lat;lon;timestamp;pressure;altitude;pressure_sealevel;temperature;humidity
15914;BME280;8055;51.930;8.840;2023-04-26T00:01:13;77126.47;;;-145.72;100.00
15914;BME280;8055;51.930;8.840;2023-04-26T00:03:39;77134.75;;;-145.72;100.00
15914;BME280;8055;51.930;8.840;2023-04-26T00:06:05;77132.69;;;-145.72;100.00
15914;BME280;8055;51.930;8.840;2023-04-26T00:08:34;77140.97;;;-145.72;100.00
15914;BME280;8055;51.930;8.840;2023-04-26T00:11:00;77143.03;;;-145.72;100.00
15914;BME280;8055;51.930;8.840;2023-04-26T00:13:25;77140.97;;;-145.72;100.00
15914;BME280;8055;51.930;8.840;2023-04-26T00:15:50;77159.59;;;-145.72;100.00
15914;BME280;8055;51.930;8.840;2023-04-26T00:18:16;77143.03;;;-145.72;100.00
15914;BME280;8055;51.930;8.840;2023-04-26T00:20:42;77145.09;;;-145.72;100.00
15914;BME280;8055;51.930;8.840;2023-04-26T00:23:07;77151.31;;;-145.72;100.00
15914;BME280;8055;51.930;8.840;2023-04-26T00:25:34;77161.66;;;-145.72;100.00
15914;BME280;8055;51.930;8.840;2023-04-26T00:27:59;77145.09;;;-145.72;100.00
15914;BME280;8055;51.930;8.840;2023-04-26T00:30:26;77165.78;;;-145.72;100.00
15914;BME280;8055;51.930;8.840;2023-04-26T00:32:51;77165.78;;;-145.72;100.00
15914;BME280;8055;51.930;8.840;2023-04-26T00:35:17;77169.94;;;-145.72;100.00
15914;BME280;8055;51.930;8.840;2023-04-26T00:37:42;77172.00;;;-145.72;100.00
15914;BME280;8055;51.930;8.840;2023-04-26T00:40:08;77178.22;;;-145.72;100.00
15914;BME280;8055;51.930;8.840;2023-04-26T00:42:34;77174.06;;;-145.72;100.00
15914;BME280;8055;51.930;8.840;2023-04-26T00:45:00;77167.88;;;-145.72;100.00
15914;BME280;8055;51.930;8.840;2023-04-26T00:47:25;77169.94;;;-145.72;100.00
15914;BME280;8055;51.930;8.840;2023-04-26T00:49:53;77176.16;;;-145.72;100.00
15914;BME280;8055;51.930;8.840;2023-04-26T00:52:19;77178.22;;;-145.72;100.00
15914;BME280;8055;51.930;8.840;2023-04-26T00:54:44;77186.50;;;-145.72;100.00
15914;BME280;8055;51.930;8.840;2023-04-26T00:57:11;77192.72;;;-145.72;100.00
15914;BME280;8055;51.930;8.840;2023-04-26T00:59:36;77190.63;;;-145.72;100.00
15914;BME280;8055;51.930;8.840;2023-04-26T01:02:02;77186.50;;;-145.72;100.00
15914;BME280;8055;51.930;8.840;2023-04-26T01:04:28;77188.56;;;-145.72;100.00
15914;BME280;8055;51.930;8.840;2023-04-26T01:06:54;77190.63;;;-145.72;100.00
15914;BME280;8055;51.930;8.840;2023-04-26T01:09:20;77194.78;;;-145.72;100.00
15914;BME280;8055;51.930;8.840;2023-04-26T01:11:46;77194.78;;;-145.72;100.00
15914;BME280;8055;51.930;8.840;2023-04-26T01:14:13;77198.91;;;-145.72;100.00
15914;BME280;8055;51.930;8.840;2023-04-26T01:16:39;77200.97;;;-145.72;100.00
15914;BME280;8055;51.930;8.840;2023-04-26T01:19:08;77190.63;;;-145.72;100.00
15914;BME280;8055;51.930;8.840;2023-04-26T01:21:38;77200.97;;;-145.72;100.00
15914;BME280;8055;51.930;8.840;2023-04-26T01:24:04;77198.91;;;-145.72;100.00
15914;BME280;8055;51.930;8.840;2023-04-26T01:26:30;77203.06;;;-145.72;100.00
15914;BME280;8055;51.930;8.840;2023-04-26T01:28:57;77211.34;;;-145.72;100.00
15914;BME280;8055;51.930;8.840;2023-04-26T01:31:22;77207.19;;;-145.72;100.00
15914;BME280;8055;51.930;8.840;2023-04-26T01:33:47;77209.25;;;-145.72;100.00
15914;BME280;8055;51.930;8.840;2023-04-26T01:36:13;77205.13;;;-145.72;100.00
15914;BME280;8055;51.930;8.840;2023-04-26T01:38:38;77213.41;;;-145.72;100.00
15914;BME280;8055;51.930;8.840;2023-04-26T01:41:04;77211.34;;;-145.72;100.00
15914;BME280;8055;51.930;8.840;2023-04-26T01:43:29;77209.25;;;-145.72;100.00
15914;BME280;8055;51.930;8.840;2023-04-26T01:45:54;77215.47;;;-145.72;100.00
15914;BME280;8055;51.930;8.840;2023-04-26T01:48:20;77207.19;;;-145.72;100.00
15914;BME280;8055;51.930;8.840;2023-04-26T01:50:45;77211.34;;;-145.72;100.00
15914;BME280;8055;51.930;8.840;2023-04-26T01:53:11;77221.69;;;-145.72;100.00
15914;BME280;8055;51.930;8.840;2023-04-26T01:55:36;77217.53;;;-145.72;100.00
15914;BME280;8055;51.930;8.840;2023-04-26T01:58:02;77219.63;;;-145.72;100.00
15914;BME280;8055;51.930;8.840;2023-04-26T02:00:28;77221.69;;;-145.72;100.00
15914;BME280;8055;51.930;8.840;2023-04-26T02:02:54;77227.91;;;-145.72;100.00
15914;BME280;8055;51.930;8.840;2023-04-26T02:05:20;77227.91;;;-145.72;100.00
15914;BME280;8055;51.930;8.840;2023-04-26T02:07:46;77232.03;;;-145.72;100.00
15914;BME280;8055;51.930;8.840;2023-04-26T02:10:11;77229.97;;;-145.72;100.00
15914;BME280;8055;51.930;8.840;2023-04-26T02:12:37;77236.19;;;-145.72;100.00
15914;BME280;8055;51.930;8.840;2023-04-26T02:15:03;77229.97;;;-145.72;100.00
15914;BME280;8055;51.930;8.840;2023-04-26T02:17:29;77232.03;;;-145.72;100.00
15914;BME280;8055;51.930;8.840;2023-04-26T02:19:55;77238.25;;;-145.72;100.00
15914;BME280;8055;51.930;8.840;2023-04-26T02:22:22;77242.38;;;-145.72;100.00
15914;BME280;8055;51.930;8.840;2023-04-26T02:24:49;77244.44;;;-145.72;100.00
15914;BME280;8055;51.930;8.840;2023-04-26T02:27:15;77250.66;;;-145.72;100.00
15914;BME280;8055;51.930;8.840;2023-04-26T02:29:41;77256.88;;;-145.72;100.00
15914;BME280;8055;51.930;8.840;2023-04-26T02:32:06;77252.72;;;-145.72;100.00
15914;BME280;8055;51.930;8.840;2023-04-26T02:34:32;77256.88;;;-145.72;100.00
15914;BME280;8055;51.930;8.840;2023-04-26T02:36:57;77261.00;;;-145.72;100.00
15914;BME280;8055;51.930;8.840;2023-04-26T02:39:23;77265.16;;;-145.72;100.00
15914;BME280;8055;51.930;8.840;2023-04-26T02:41:48;77261.00;;;-145.72;100.00
15914;BME280;8055;51.930;8.840;2023-04-26T02:44:14;77256.88;;;-145.72;100.00
15914;BME280;8055;51.930;8.840;2023-04-26T02:46:39;77258.94;;;-145.72;100.00
15914;BME280;8055;51.930;8.840;2023-04-26T02:49:05;77256.88;;;-145.72;100.00
15914;BME280;8055;51.930;8.840;2023-04-26T02:51:30;77261.00;;;-145.72;100.00
15914;BME280;8055;51.930;8.840;2023-04-26T02:53:57;77256.88;;;-145.72;100.00
15914;BME280;8055;51.930;8.840;2023-04-26T02:56:23;77261.00;;;-145.72;100.00
15914;BME280;8055;51.930;8.840;2023-04-26T02:58:49;77248.59;;;-145.72;100.00
15914;BME280;8055;51.930;8.840;2023-04-26T03:01:14;77250.66;;;-145.72;100.00
15914;BME280;8055;51.930;8.840;2023-04-26T03:03:39;77250.66;;;-145.72;100.00
15914;BME280;8055;51.930;8.840;2023-04-26T03:06:05;77246.53;;;-145.72;100.00
15914;BME280;8055;51.930;8.840;2023-04-26T03:08:30;77256.88;;;-145.72;100.00
15914;BME280;8055;51.930;8.840;2023-04-26T03:10:56;77258.94;;;-145.72;100.00
15914;BME280;8055;51.930;8.840;2023-04-26T03:13:22;77263.09;;;-145.72;100.00
15914;BME280;8055;51.930;8.840;2023-04-26T03:15:48;77261.00;;;-145.72;100.00
15914;BME280;8055;51.930;8.840;2023-04-26T03:18:16;77246.53;;;-145.72;100.00
15914;BME280;8055;51.930;8.840;2023-04-26T03:20:42;77252.72;;;-145.72;100.00
15914;BME280;8055;51.930;8.840;2023-04-26T03:23:07;77261.00;;;-145.72;100.00
15914;BME280;8055;51.930;8.840;2023-04-26T03:25:33;77271.38;;;-145.72;100.00
15914;BME280;8055;51.930;8.840;2023-04-26T03:27:58;77256.88;;;-145.72;100.00
15914;BME280;8055;51.930;8.840;2023-04-26T03:30:24;77261.00;;;-145.72;100.00
15914;BME280;8055;51.930;8.840;2023-04-26T03:32:50;77265.16;;;-145.72;100.00
15914;BME280;8055;51.930;8.840;2023-04-26T03:35:15;77273.44;;;-145.72;100.00
15914;BME280;8055;51.930;8.840;2023-04-26T03:37:40;77271.38;;;-145.72;100.00
15914;BME280;8055;51.930;8.840;2023-04-26T03:40:07;77277.56;;;-145.72;100.00
15914;BME280;8055;51.930;8.840;2023-04-26T03:42:33;77281.72;;;-145.72;100.00
15914;BME280;8055;51.930;8.840;2023-04-26T03:44:58;77271.38;;;-145.72;100.00
15914;BME280;8055;51.930;8.840;2023-04-26T03:47:24;77269.28;;;-145.72;100.00
15914;BME280;8055;51.930;8.840;2023-04-26T03:49:49;77277.56;;;-145.72;100.00
15914;BME280;8055;51.930;8.840;2023-04-26T03:52:14;77273.44;;;-145.72;100.00
15914;BME280;8055;51.930;8.840;2023-04-26T03:54:40;77269.28;;;-145.72;100.00
15914;BME280;8055;51.930;8.840;2023-04-26T03:57:06;77273.44;;;-145.72;100.00
15914;BME280;8055;51.930;8.840;2023-04-26T03:59:31;77275.50;;;-145.72;100.00
15914;BME280;8055;51.930;8.840;2023-04-26T04:01:57;77273.44;;;-145.72;100.00
15914;BME280;8055;51.930;8.840;2023-04-26T04:04:22;77267.22;;;-145.72;100.00
15914;BME280;8055;51.930;8.840;2023-04-26T04:06:47;77273.44;;;-145.72;100.00
15914;BME280;8055;51.930;8.840;2023-04-26T04:09:13;77269.28;;;-145.72;100.00
15914;BME280;8055;51.930;8.840;2023-04-26T04:11:38;77275.50;;;-145.72;100.00
15914;BME280;8055;51.930;8.840;2023-04-26T04:14:03;77275.50;;;-145.72;100.00
15914;BME280;8055;51.930;8.840;2023-04-26T04:16:29;77279.66;;;-145.72;100.00
15914;BME280;8055;51.930;8.840;2023-04-26T04:18:55;77281.72;;;-145.72;100.00
15914;BME280;8055;51.930;8.840;2023-04-26T04:21:20;77275.50;;;-145.72;100.00
15914;BME280;8055;51.930;8.840;2023-04-26T04:23:45;77281.72;;;-145.72;100.00
15914;BME280;8055;51.930;8.840;2023-04-26T04:26:11;77275.50;;;-145.72;100.00
15914;BME280;8055;51.930;8.840;2023-04-26T04:28:38;77290.00;;;-145.72;100.00
15914;BME280;8055;51.930;8.840;2023-04-26T04:31:03;77285.84;;;-145.72;100.00
15914;BME280;8055;51.930;8.840;2023-04-26T04:33:29;77279.66;;;-145.72;100.00
15914;BME280;8055;51.930;8.840;2023-04-26T04:35:54;77285.84;;;-145.72;100.00
15914;BME280;8055;51.930;8.840;2023-04-26T04:38:20;77283.78;;;-145.72;100.00
15914;BME280;8055;51.930;8.840;2023-04-26T04:40:48;77285.84;;;-145.72;100.00
15914;BME280;8055;51.930;8.840;2023-04-26T04:43:14;77292.06;;;-145.72;100.00
15914;BME280;8055;51.930;8.840;2023-04-26T04:45:41;77290.00;;;-145.72;100.00
15914;BME280;8055;51.930;8.840;2023-04-26T04:48:07;77277.56;;;-145.72;100.00
15914;BME280;8055;51.930;8.840;2023-04-26T04:50:33;77290.00;;;-145.72;100.00
15914;BME280;8055;51.930;8.840;2023-04-26T04:52:58;77287.94;;;-145.72;100.00
15914;BME280;8055;51.930;8.840;2023-04-26T04:55:24;77285.84;;;-145.72;100.00
15914;BME280;8055;51.930;8.840;2023-04-26T04:57:50;77279.66;;;-145.72;100.00
15914;BME280;8055;51.930;8.840;2023-04-26T05:00:15;77279.66;;;-145.72;100.00
15914;BME280;8055;51.930;8.840;2023-04-26T05:02:41;77269.28;;;-145.72;100.00
15914;BME280;8055;51.930;8.840;2023-04-26T05:05:07;77265.16;;;-145.72;100.00
15914;BME280;8055;51.930;8.840;2023-04-26T05:07:33;77261.00;;;-145.72;100.00
15914;BME280;8055;51.930;8.840;2023-04-26T05:09:58;77256.88;;;-145.72;100.00
15914;BME280;8055;51.930;8.840;2023-04-26T05:12:24;77256.88;;;-145.72;100.00
15914;BME280;8055;51.930;8.840;2023-04-26T05:14:50;77250.66;;;-145.72;100.00
15914;BME280;8055;51.930;8.840;2023-04-26T05:17:15;77238.25;;;-145.72;100.00
15914;BME280;8055;51.930;8.840;2023-04-26T05:19:40;77240.31;;;-145.72;100.00
15914;BME280;8055;51.930;8.840;2023-04-26T05:22:06;77234.09;;;-145.72;100.00
15914;BME280;8055;51.930;8.840;2023-04-26T05:24:31;77217.53;;;-145.72;100.00
15914;BME280;8055;51.930;8.840;2023-04-26T05:26:58;77219.63;;;-145.72;100.00
15914;BME280;8055;51.930;8.840;2023-04-26T05:29:24;77207.19;;;-145.72;100.00
15914;BME280;8055;51.930;8.840;2023-04-26T05:31:52;77207.19;;;-145.72;100.00
15914;BME280;8055;51.930;8.840;2023-04-26T05:34:18;77198.91;;;-145.72;100.00
15914;BME280;8055;51.930;8.840;2023-04-26T05:36:43;77190.63;;;-145.72;100.00
15914;BME280;8055;51.930;8.840;2023-04-26T05:39:08;77180.28;;;-145.72;100.00
15914;BME280;8055;51.930;8.840;2023-04-26T05:41:34;77178.22;;;-145.72;100.00
15914;BME280;8055;51.930;8.840;2023-04-26T05:44:00;77176.16;;;-145.72;100.00
15914;BME280;8055;51.930;8.840;2023-04-26T05:46:26;77159.59;;;-145.72;100.00
15914;BME280;8055;51.930;8.840;2023-04-26T05:48:51;77149.22;;;-145.72;100.00
15914;BME280;8055;51.930;8.840;2023-04-26T05:51:16;77140.97;;;-145.72;100.00
15914;BME280;8055;51.930;8.840;2023-04-26T05:53:42;77138.88;;;-145.72;100.00
15914;BME280;8055;51.930;8.840;2023-04-26T05:56:07;77138.88;;;-145.72;100.00
15914;BME280;8055;51.930;8.840;2023-04-26T05:58:32;77126.47;;;-145.72;100.00
15914;BME280;8055;51.930;8.840;2023-04-26T06:00:59;77136.81;;;-145.72;100.00
15914;BME280;8055;51.930;8.840;2023-04-26T06:03:24;77116.13;;;-145.72;100.00
15914;BME280;8055;51.930;8.840;2023-04-26T06:05:49;77103.69;;;-145.72;100.00
15914;BME280;8055;51.930;8.840;2023-04-26T06:08:15;77099.56;;;-145.72;100.00
15914;BME280;8055;51.930;8.840;2023-04-26T06:10:41;77103.69;;;-145.72;100.00
15914;BME280;8055;51.930;8.840;2023-04-26T06:13:06;77093.34;;;-145.72;100.00
15914;BME280;8055;51.930;8.840;2023-04-26T06:15:31;77087.13;;;-145.72;100.00
15914;BME280;8055;51.930;8.840;2023-04-26T06:17:58;77083.00;;;-145.72;100.00
15914;BME280;8055;51.930;8.840;2023-04-26T06:20:24;77070.56;;;-145.72;100.00
15914;BME280;8055;51.930;8.840;2023-04-26T06:22:49;77068.50;;;-145.72;100.00
15914;BME280;8055;51.930;8.840;2023-04-26T06:25:15;77058.16;;;-145.72;100.00
15914;BME280;8055;51.930;8.840;2023-04-26T06:27:40;77058.16;;;-145.72;100.00
15914;BME280;8055;51.930;8.840;2023-04-26T06:30:07;77064.38;;;-145.72;100.00
15914;BME280;8055;51.930;8.840;2023-04-26T06:32:32;77054.03;;;-145.72;100.00
15914;BME280;8055;51.930;8.840;2023-04-26T06:34:58;77043.66;;;-145.72;100.00
15914;BME280;8055;51.930;8.840;2023-04-26T06:37:23;77045.75;;;-145.72;100.00
15914;BME280;8055;51.930;8.840;2023-04-26T06:39:48;77043.66;;;-145.72;100.00
15914;BME280;8055;51.930;8.840;2023-04-26T06:42:14;77022.97;;;-145.72;100.00
15914;BME280;8055;51.930;8.840;2023-04-26T06:44:39;77020.91;;;-145.72;100.00
15914;BME280;8055;51.930;8.840;2023-04-26T06:47:05;77006.41;;;-145.72;100.00
15914;BME280;8055;51.930;8.840;2023-04-26T06:49:34;77012.63;;;-145.72;100.00
15914;BME280;8055;51.930;8.840;2023-04-26T06:51:59;77008.47;;;-145.72;100.00
15914;BME280;8055;51.930;8.840;2023-04-26T06:54:28;76994.00;;;-145.72;100.00
15914;BME280;8055;51.930;8.840;2023-04-26T06:56:55;76996.06;;;-145.72;100.00
15914;BME280;8055;51.930;8.840;2023-04-26T06:59:20;76987.78;;;-145.72;100.00
15914;BME280;8055;51.930;8.840;2023-04-26T07:01:45;76979.50;;;-145.72;100.00
15914;BME280;8055;51.930;8.840;2023-04-26T07:04:11;76971.22;;;-145.72;100.00
15914;BME280;8055;51.930;8.840;2023-04-26T07:06:37;76950.53;;;-145.72;100.00
15914;BME280;8055;51.930;8.840;2023-04-26T07:09:03;76958.81;;;-145.72;100.00
15914;BME280;8055;51.930;8.840;2023-04-26T07:11:30;76962.94;;;-145.72;100.00
15914;BME280;8055;51.930;8.840;2023-04-26T07:13:55;76975.38;;;-145.72;100.00
15914;BME280;8055;51.930;8.840;2023-04-26T07:16:21;76954.66;;;-145.72;100.00
15914;BME280;8055;51.930;8.840;2023-04-26T07:18:47;76933.97;;;-145.72;100.00
15914;BME280;8055;51.930;8.840;2023-04-26T07:21:17;76925.69;;;-145.72;100.00
15914;BME280;8055;51.930;8.840;2023-04-26T07:23:42;76921.53;;;-145.72;100.00
15914;BME280;8055;51.930;8.840;2023-04-26T07:26:10;76917.41;;;-145.72;100.00
15914;BME280;8055;51.930;8.840;2023-04-26T07:28:35;76917.41;;;-145.72;100.00
15914;BME280;8055;51.930;8.840;2023-04-26T07:31:01;76900.84;;;-145.72;100.00
15914;BME280;8055;51.930;8.840;2023-04-26T07:33:26;76880.16;;;-145.72;100.00
15914;BME280;8055;51.930;8.840;2023-04-26T07:35:58;76851.19;;;-145.72;100.00
15914;BME280;8055;51.930;8.840;2023-04-26T07:38:25;76840.81;;;-145.72;100.00
15914;BME280;8055;51.930;8.840;2023-04-26T07:40:51;76842.91;;;-145.72;100.00
15914;BME280;8055;51.930;8.840;2023-04-26T07:43:20;76828.41;;;-145.72;100.00
15914;BME280;8055;51.930;8.840;2023-04-26T07:45:45;76828.41;;;-145.72;100.00
15914;BME280;8055;51.930;8.840;2023-04-26T07:48:11;76826.34;;;-145.72;100.00
15914;BME280;8055;51.930;8.840;2023-04-26T07:50:36;76834.63;;;-145.72;100.00
15914;BME280;8055;51.930;8.840;2023-04-26T07:53:02;76807.72;;;-145.72;100.00
15914;BME280;8055;51.930;8.840;2023-04-26T07:55:27;76789.09;;;-145.72;100.00
15914;BME280;8055;51.930;8.840;2023-04-26T07:57:53;76762.19;;;-145.72;100.00
15914;BME280;8055;51.930;8.840;2023-04-26T08:00:18;76764.25;;;-145.72;100.00
15914;BME280;8055;51.930;8.840;2023-04-26T08:02:44;76753.91;;;-145.72;100.00
15914;BME280;8055;51.930;8.840;2023-04-26T08:05:13;76731.13;;;-145.72;100.00
15914;BME280;8055;51.930;8.840;2023-04-26T08:07:39;76722.84;;;-145.72;100.00
15914;BME280;8055;51.930;8.840;2023-04-26T08:10:05;76702.16;;;-145.72;100.00
15914;BME280;8055;51.930;8.840;2023-04-26T08:12:36;76695.94;;;-145.72;100.00
15914;BME280;8055;51.930;8.840;2023-04-26T08:15:02;76702.16;;;-145.72;100.00
15914;BME280;8055;51.930;8.840;2023-04-26T08:17:29;76681.47;;;-145.72;100.00
15914;BME280;8055;51.930;8.840;2023-04-26T08:19:55;76662.81;;;-145.72;100.00
15914;BME280;8055;51.930;8.840;2023-04-26T08:22:21;76644.19;;;-145.72;100.00
15914;BME280;8055;51.930;8.840;2023-04-26T08:24:48;76640.06;;;-145.72;100.00
15914;BME280;8055;51.930;8.840;2023-04-26T08:27:14;76638.00;;;-145.72;100.00
15914;BME280;8055;51.930;8.840;2023-04-26T08:29:39;76648.34;;;-145.72;100.00
15914;BME280;8055;51.930;8.840;2023-04-26T08:32:05;76631.78;;;-145.72;100.00
15914;BME280;8055;51.930;8.840;2023-04-26T08:34:31;76611.09;;;-145.72;100.00
15914;BME280;8055;51.930;8.840;2023-04-26T08:36:56;76596.59;;;-145.72;100.00
15914;BME280;8055;51.930;8.840;2023-04-26T08:39:22;76600.75;;;-145.72;100.00
15914;BME280;8055;51.930;8.840;2023-04-26T08:41:55;76625.56;;;-145.72;100.00
15914;BME280;8055;51.930;8.840;2023-04-26T08:44:23;76646.28;;;-145.72;100.00
15914;BME280;8055;51.930;8.840;2023-04-26T08:47:21;76629.72;;;-145.72;100.00
15914;BME280;8055;51.930;8.840;2023-04-26T08:49:53;76617.28;;;-145.72;100.00
15914;BME280;8055;51.930;8.840;2023-04-26T08:52:27;76586.25;;;-145.72;100.00
15914;BME280;8055;51.930;8.840;2023-04-26T08:54:53;76596.59;;;-145.72;100.00
15914;BME280;8055;51.930;8.840;2023-04-26T08:57:21;76619.38;;;-145.72;100.00
15914;BME280;8055;51.930;8.840;2023-04-26T08:59:48;76629.72;;;-145.72;100.00
15914;BME280;8055;51.930;8.840;2023-04-26T09:02:17;76606.94;;;-145.72;100.00
15914;BME280;8055;51.930;8.840;2023-04-26T09:04:46;76590.38;;;-145.72;100.00
15914;BME280;8055;51.930;8.840;2023-04-26T09:09:53;76546.94;;;-145.72;100.00
15914;BME280;8055;51.930;8.840;2023-04-26T09:12:21;76515.88;;;-145.72;100.00
15914;BME280;8055;51.930;8.840;2023-04-26T09:14:47;76474.50;;;-145.72;100.00
15914;BME280;8055;51.930;8.840;2023-04-26T09:17:25;76470.34;;;-145.72;93.32
15914;BME280;8055;51.930;8.840;2023-04-26T09:19:51;76499.31;;;-145.72;78.63
15914;BME280;8055;51.930;8.840;2023-04-26T09:22:30;76495.19;;;-145.72;84.98
15914;BME280;8055;51.930;8.840;2023-04-26T09:24:56;76507.59;;;-145.72;84.73
15914;BME280;8055;51.930;8.840;2023-04-26T09:27:40;76501.41;;;-145.72;85.39
15914;BME280;8055;51.930;8.840;2023-04-26T09:30:15;76499.31;;;-145.72;90.27
15914;BME280;8055;51.930;8.840;2023-04-26T09:35:40;76493.13;;;-145.72;81.31
15914;BME280;8055;51.930;8.840;2023-04-26T09:38:09;76491.03;;;-145.72;81.43
15914;BME280;8055;51.930;8.840;2023-04-26T09:40:37;76511.75;;;-145.72;77.61
15914;BME280;8055;51.930;8.840;2023-04-26T09:43:05;76526.22;;;-145.72;79.95
15914;BME280;8055;51.930;8.840;2023-04-26T09:45:32;76551.06;;;-145.72;79.22
15914;BME280;8055;51.930;8.840;2023-04-26T09:50:41;76575.91;;;-145.72;86.41
15914;BME280;8055;51.930;8.840;2023-04-26T09:53:08;76557.28;;;-145.72;94.29
15914;BME280;8055;51.930;8.840;2023-04-26T09:55:34;76538.66;;;-145.72;77.84
15914;BME280;8055;51.930;8.840;2023-04-26T09:58:07;76493.13;;;-145.72;78.34
15914;BME280;8055;51.930;8.840;2023-04-26T10:00:33;76497.25;;;-145.72;73.63
15914;BME280;8055;51.930;8.840;2023-04-26T10:03:00;76515.88;;;-145.72;71.47
15914;BME280;8055;51.930;8.840;2023-04-26T10:05:26;76517.97;;;-145.72;71.25
15914;BME280;8055;51.930;8.840;2023-04-26T10:07:52;76517.97;;;-145.72;78.98
15914;BME280;8055;51.930;8.840;2023-04-26T10:10:17;76511.75;;;-145.72;81.39
15914;BME280;8055;51.930;8.840;2023-04-26T10:12:43;76520.03;;;-145.72;78.38
15914;BME280;8055;51.930;8.840;2023-04-26T10:15:10;76549.00;;;-145.72;71.08
15914;BME280;8055;51.930;8.840;2023-04-26T10:17:37;76555.22;;;-145.72;76.40
15914;BME280;8055;51.930;8.840;2023-04-26T10:20:06;76567.63;;;-145.72;79.92
15914;BME280;8055;51.930;8.840;2023-04-26T10:22:42;76592.47;;;-145.72;82.70
15914;BME280;8055;51.930;8.840;2023-04-26T10:25:09;76623.50;;;-145.72;80.00
15914;BME280;8055;51.930;8.840;2023-04-26T10:27:46;76627.66;;;-145.72;86.92
15914;BME280;8055;51.930;8.840;2023-04-26T10:30:16;76629.72;;;-145.72;90.33
15914;BME280;8055;51.930;8.840;2023-04-26T10:35:18;76644.19;;;-145.72;94.28
15914;BME280;8055;51.930;8.840;2023-04-26T10:40:25;76671.09;;;-145.72;97.76
15914;BME280;8055;51.930;8.840;2023-04-26T10:45:35;76669.03;;;-145.72;98.06
15914;BME280;8055;51.930;8.840;2023-04-26T10:48:30;76648.34;;;-145.72;98.02
15914;BME280;8055;51.930;8.840;2023-04-26T10:56:55;76650.41;;;-145.72;97.79
15914;BME280;8055;51.930;8.840;2023-04-26T11:01:34;76629.72;;;-145.72;100.00
15914;BME280;8055;51.930;8.840;2023-04-26T11:04:05;76627.66;;;-145.72;100.00
15914;BME280;8055;51.930;8.840;2023-04-26T11:06:50;76623.50;;;-145.72;100.00
15914;BME280;8055;51.930;8.840;2023-04-26T11:12:10;76627.66;;;-145.72;99.98
15914;BME280;8055;51.930;8.840;2023-04-26T11:14:36;76606.94;;;-145.72;99.52
15914;BME280;8055;51.930;8.840;2023-04-26T11:17:03;76600.75;;;-145.72;91.72
15914;BME280;8055;51.930;8.840;2023-04-26T11:19:30;76590.38;;;-145.72;90.78
15914;BME280;8055;51.930;8.840;2023-04-26T11:21:56;76592.47;;;-145.72;86.87
15914;BME280;8055;51.930;8.840;2023-04-26T11:24:26;76590.38;;;-145.72;89.05
15914;BME280;8055;51.930;8.840;2023-04-26T11:26:52;76573.84;;;-145.72;92.57
15914;BME280;8055;51.930;8.840;2023-04-26T11:29:20;76551.06;;;-145.72;92.80
15914;BME280;8055;51.930;8.840;2023-04-26T11:31:53;76538.66;;;-145.72;94.04
15914;BME280;8055;51.930;8.840;2023-04-26T11:34:20;76540.72;;;-145.72;91.21
15914;BME280;8055;51.930;8.840;2023-04-26T11:36:46;76532.44;;;-145.72;93.53
15914;BME280;8055;51.930;8.840;2023-04-26T11:39:12;76528.31;;;-145.72;90.22
15914;BME280;8055;51.930;8.840;2023-04-26T11:41:37;76528.31;;;-145.72;89.38
15914;BME280;8055;51.930;8.840;2023-04-26T11:44:03;76505.53;;;-145.72;91.20
15914;BME280;8055;51.930;8.840;2023-04-26T11:46:29;76488.97;;;-145.72;90.08
15914;BME280;8055;51.930;8.840;2023-04-26T11:48:54;76476.56;;;-145.72;89.72
15914;BME280;8055;51.930;8.840;2023-04-26T11:51:20;76482.78;;;-145.72;90.20
15914;BME280;8055;51.930;8.840;2023-04-26T11:53:46;76491.03;;;-145.72;88.95
15914;BME280;8055;51.930;8.840;2023-04-26T11:58:43;76486.91;;;-145.72;94.16
15914;BME280;8055;51.930;8.840;2023-04-26T12:01:09;76491.03;;;-145.72;91.16
15914;BME280;8055;51.930;8.840;2023-04-26T12:03:34;76464.16;;;-145.72;94.66
15914;BME280;8055;51.930;8.840;2023-04-26T12:06:02;76385.50;;;-145.72;86.20
15914;BME280;8055;51.930;8.840;2023-04-26T12:08:29;76406.19;;;-145.72;81.26
15914;BME280;8055;51.930;8.840;2023-04-26T12:10:59;76416.53;;;-145.72;85.21
15914;BME280;8055;51.930;8.840;2023-04-26T12:13:27;76433.09;;;-145.72;82.60
15914;BME280;8055;51.930;8.840;2023-04-26T12:15:52;76470.34;;;-145.72;85.25
15914;BME280;8055;51.930;8.840;2023-04-26T12:18:18;76491.03;;;-145.72;85.12
15914;BME280;8055;51.930;8.840;2023-04-26T12:20:44;76499.31;;;-145.72;89.29
15914;BME280;8055;51.930;8.840;2023-04-26T12:23:14;76511.75;;;-145.72;88.05
15914;BME280;8055;51.930;8.840;2023-04-26T12:25:50;76522.09;;;-145.72;91.36
15914;BME280;8055;51.930;8.840;2023-04-26T12:28:16;76540.72;;;-145.72;90.38
15914;BME280;8055;51.930;8.840;2023-04-26T12:30:42;76530.38;;;-145.72;94.29
15914;BME280;8055;51.930;8.840;2023-04-26T12:33:07;76532.44;;;-145.72;96.29
15914;BME280;8055;51.930;8.840;2023-04-26T12:35:33;76538.66;;;-145.72;92.35
15914;BME280;8055;51.930;8.840;2023-04-26T12:37:59;76530.38;;;-145.72;94.13
15914;BME280;8055;51.930;8.840;2023-04-26T12:40:26;76544.84;;;-145.72;89.55
15914;BME280;8055;51.930;8.840;2023-04-26T12:42:53;76532.44;;;-145.72;92.94
15914;BME280;8055;51.930;8.840;2023-04-26T12:45:21;76532.44;;;-145.72;90.29
15914;BME280;8055;51.930;8.840;2023-04-26T12:47:47;76520.03;;;-145.72;97.50
15914;BME280;8055;51.930;8.840;2023-04-26T12:50:14;76515.88;;;-145.72;92.35
15914;BME280;8055;51.930;8.840;2023-04-26T12:52:41;76501.41;;;-145.72;92.87
15914;BME280;8055;51.930;8.840;2023-04-26T12:55:12;76488.97;;;-145.72;90.32
15914;BME280;8055;51.930;8.840;2023-04-26T12:57:39;76474.50;;;-145.72;92.13
15914;BME280;8055;51.930;8.840;2023-04-26T13:00:08;76466.22;;;-145.72;92.99
15914;BME280;8055;51.930;8.840;2023-04-26T13:02:34;76455.88;;;-145.72;90.37
15914;BME280;8055;51.930;8.840;2023-04-26T13:05:00;76460.00;;;-145.72;86.57
15914;BME280;8055;51.930;8.840;2023-04-26T13:07:30;76472.41;;;-145.72;80.89
15914;BME280;8055;51.930;8.840;2023-04-26T13:09:55;76464.16;;;-145.72;81.89